Time;durP1;ratioP1;P1;durP2;ratioP2;P2;SDS_P1;SDS_P2;PMS_P1;PMS_P2;Temp;Humidity;BMP_temperature;BMP_pressure;BME280_temperature;BME280_humidity;BME280_pressure;Samples;Min_cycle;Max_cycle;Signal;HPM_P1;HPM_P2
2022/10/22 00:01:50;;;;;;;9.37;8.33;;;20.40;74.00;;;;;;5033036;28;20501;-85
2022/10/22 00:04:18;;;;;;;12.97;8.60;;;20.40;74.00;;;;;;5032233;28;20465;-82
2022/10/22 00:06:46;;;;;;;11.00;9.10;;;20.40;74.30;;;;;;5025608;28;20909;-83
2022/10/22 00:09:14;;;;;;;9.97;8.73;;;20.40;74.10;;;;;;5022873;28;20450;-85
2022/10/22 00:11:42;;;;;;;9.57;8.07;;;20.40;74.10;;;;;;5032916;28;20455;-82
2022/10/22 00:14:11;;;;;;;10.73;8.63;;;20.40;74.20;;;;;;5024616;28;20448;-82
2022/10/22 00:16:39;;;;;;;11.33;7.50;;;20.30;74.00;;;;;;5030628;28;20447;-83
2022/10/22 00:19:09;;;;;;;8.20;7.37;;;20.30;74.10;;;;;;5034298;28;20444;-80
2022/10/22 00:21:38;;;;;;;9.13;8.13;;;20.30;74.20;;;;;;5033563;28;20462;-81
2022/10/22 00:24:06;;;;;;;9.23;8.07;;;20.30;74.20;;;;;;5024867;28;20467;-82
2022/10/22 00:26:34;;;;;;;9.07;7.47;;;20.30;74.30;;;;;;5024198;28;20463;-81
2022/10/22 00:29:02;;;;;;;8.73;7.80;;;20.30;74.30;;;;;;5033824;28;20475;-82
2022/10/22 00:31:30;;;;;;;11.43;8.50;;;20.30;74.30;;;;;;5035097;28;20462;-83
2022/10/22 00:33:58;;;;;;;9.23;6.93;;;20.20;74.30;;;;;;5034434;28;20451;-83
2022/10/22 00:36:28;;;;;;;9.43;7.83;;;20.20;74.50;;;;;;5032798;28;20452;-82
2022/10/22 00:38:56;;;;;;;9.20;7.67;;;20.20;74.50;;;;;;5033103;28;20539;-83
2022/10/22 00:41:24;;;;;;;10.37;7.30;;;20.20;74.60;;;;;;5022316;28;20464;-83
2022/10/22 00:43:59;;;;;;;9.23;7.67;;;20.10;74.60;;;;;;5022943;28;20480;-82
2022/10/22 00:46:28;;;;;;;8.83;7.57;;;20.10;74.60;;;;;;5026675;28;20455;-82
2022/10/22 00:48:56;;;;;;;7.80;7.00;;;20.20;74.80;;;;;;5032041;28;21056;-82
2022/10/22 00:51:25;;;;;;;8.70;7.43;;;20.10;74.80;;;;;;5031469;28;20444;-82
2022/10/22 00:53:55;;;;;;;7.90;7.10;;;20.10;74.70;;;;;;5033228;28;20902;-83
2022/10/22 00:56:23;;;;;;;8.63;7.00;;;20.10;74.80;;;;;;5032511;28;20458;-83
2022/10/22 00:58:53;;;;;;;7.43;6.73;;;20.10;74.80;;;;;;5025244;28;20456;-84
2022/10/22 01:01:24;;;;;;;8.07;7.23;;;20.10;74.90;;;;;;5024858;28;20582;-82
2022/10/22 01:03:52;;;;;;;9.23;7.47;;;20.00;74.80;;;;;;5024246;28;20479;-82
2022/10/22 01:06:21;;;;;;;8.47;7.07;;;20.00;75.70;;;;;;5033147;28;20455;-82
2022/10/22 01:08:54;;;;;;;7.43;6.57;;;20.10;75.10;;;;;;5033001;28;20451;-82
2022/10/22 01:11:25;;;;;;;8.60;7.60;;;20.00;75.10;;;;;;5032303;28;20451;-82
2022/10/22 01:13:56;;;;;;;9.53;7.00;;;20.00;75.10;;;;;;5034024;28;20467;-82
2022/10/22 01:16:28;;;;;;;8.57;6.60;;;20.00;75.10;;;;;;5024508;28;20466;-79
2022/10/22 01:18:59;;;;;;;8.30;6.53;;;20.00;75.10;;;;;;5025761;28;20439;-82
2022/10/22 01:21:31;;;;;;;9.00;6.87;;;20.00;75.20;;;;;;5032614;28;20454;-83
2022/10/22 01:24:36;;;;;;;6.93;6.17;;;20.00;75.20;;;;;;5033467;28;20470;-82
2022/10/22 01:27:10;;;;;;;8.23;6.97;;;19.90;75.10;;;;;;4988252;28;20457;-82
2022/10/22 01:29:40;;;;;;;7.30;6.60;;;19.90;75.30;;;;;;4987666;28;20466;-82
2022/10/22 01:32:10;;;;;;;7.03;6.33;;;19.90;75.40;;;;;;5013076;28;20476;-82
2022/10/22 01:34:39;;;;;;;7.60;6.80;;;19.90;75.50;;;;;;5025706;28;20452;-83
2022/10/22 01:37:07;;;;;;;7.27;6.57;;;19.90;75.60;;;;;;5025422;28;20451;-82
2022/10/22 01:39:35;;;;;;;7.10;6.17;;;19.90;75.50;;;;;;5032986;28;20436;-83
2022/10/22 01:42:04;;;;;;;7.23;6.10;;;19.90;75.50;;;;;;5030810;28;20475;-83
2022/10/22 01:44:33;;;;;;;7.07;6.20;;;19.90;75.60;;;;;;5027296;28;20479;-81
2022/10/22 01:47:11;;;;;;;7.00;6.30;;;19.80;75.50;;;;;;5023908;28;20487;-83
2022/10/22 01:50:04;;;;;;;7.63;6.00;;;19.80;75.60;;;;;;5025185;28;20471;-82
2022/10/22 01:52:40;;;;;;;6.83;6.10;;;19.80;75.70;;;;;;5016103;28;20476;-82
2022/10/22 01:55:12;;;;;;;6.90;6.27;;;19.80;75.80;;;;;;5023963;28;20463;-82
2022/10/22 01:57:44;;;;;;;6.10;5.53;;;19.80;75.80;;;;;;5032272;28;20448;-83
2022/10/22 02:00:12;;;;;;;6.03;5.43;;;19.80;75.80;;;;;;5024522;28;20447;-83
2022/10/22 02:02:43;;;;;;;7.33;6.27;;;19.70;75.70;;;;;;5031065;28;20471;-85
2022/10/22 02:05:13;;;;;;;6.57;5.97;;;19.70;75.80;;;;;;5034498;28;20449;-82
2022/10/22 02:07:43;;;;;;;6.97;6.27;;;19.70;75.90;;;;;;5032758;28;20447;-83
2022/10/22 02:10:11;;;;;;;6.40;5.67;;;19.70;75.80;;;;;;5025395;28;20474;-82
2022/10/22 02:12:39;;;;;;;6.37;5.77;;;19.70;75.90;;;;;;5033169;28;20497;-82
2022/10/22 02:15:09;;;;;;;6.20;5.60;;;19.70;75.90;;;;;;5027904;28;20464;-81
2022/10/22 02:17:37;;;;;;;6.10;5.60;;;19.70;75.90;;;;;;5027770;28;20452;-82
2022/10/22 02:20:08;;;;;;;6.97;6.27;;;19.60;75.90;;;;;;5031898;28;20443;-82
2022/10/22 02:22:36;;;;;;;5.93;5.43;;;19.70;75.90;;;;;;5041663;28;20484;-81
2022/10/22 02:25:06;;;;;;;7.03;6.20;;;19.60;75.90;;;;;;5043393;28;20444;-83
2022/10/22 02:27:36;;;;;;;5.50;4.90;;;19.60;76.00;;;;;;5035838;28;20507;-84
2022/10/22 02:30:05;;;;;;;6.17;5.57;;;19.70;76.00;;;;;;5031940;28;20547;-84
2022/10/22 02:32:35;;;;;;;4.93;4.53;;;19.60;75.90;;;;;;5042350;28;20471;-84
2022/10/22 02:35:04;;;;;;;5.60;5.10;;;19.60;76.00;;;;;;5042675;28;20501;-85
2022/10/22 02:37:33;;;;;;;5.50;5.07;;;19.60;76.10;;;;;;5055054;28;20485;-84
2022/10/22 02:40:01;;;;;;;5.83;5.33;;;19.60;76.00;;;;;;5046023;28;20444;-88
2022/10/22 02:42:29;;;;;;;5.90;5.30;;;19.60;76.10;;;;;;5047915;28;20483;-82
2022/10/22 02:44:57;;;;;;;5.40;4.97;;;19.60;76.10;;;;;;5040156;28;20427;-84
2022/10/22 02:47:24;;;;;;;5.27;4.87;;;19.60;76.10;;;;;;5043374;28;20460;-85
2022/10/22 02:49:53;;;;;;;5.90;5.30;;;19.60;76.10;;;;;;5037077;28;20460;-79
2022/10/22 02:52:20;;;;;;;6.27;5.00;;;19.60;76.10;;;;;;5048467;28;20470;-83
2022/10/22 02:54:50;;;;;;;5.80;5.17;;;19.60;76.10;;;;;;5040538;28;20458;-83
2022/10/22 02:57:18;;;;;;;6.00;5.50;;;19.60;76.10;;;;;;5039441;28;20452;-84
2022/10/22 02:59:49;;;;;;;5.90;4.90;;;19.50;76.00;;;;;;5043329;28;20455;-84
2022/10/22 03:02:17;;;;;;;5.20;4.80;;;19.50;76.20;;;;;;5038533;28;20463;-83
2022/10/22 03:04:45;;;;;;;5.60;5.10;;;19.50;76.20;;;;;;5039184;28;20800;-83
2022/10/22 03:07:13;;;;;;;5.80;5.13;;;19.50;76.20;;;;;;5039929;28;20456;-83
2022/10/22 03:09:41;;;;;;;5.27;4.77;;;19.50;76.30;;;;;;5047204;28;20455;-85
2022/10/22 03:12:11;;;;;;;5.10;4.70;;;19.50;76.30;;;;;;5045156;28;20499;-84
2022/10/22 03:14:39;;;;;;;5.60;4.60;;;19.50;76.10;;;;;;5039253;28;20439;-83
2022/10/22 03:17:07;;;;;;;5.37;4.87;;;19.50;76.10;;;;;;5039621;28;20451;-86
2022/10/22 03:19:35;;;;;;;6.13;4.77;;;19.50;76.20;;;;;;5029369;28;20451;-85
2022/10/22 03:22:05;;;;;;;5.40;4.70;;;19.50;76.20;;;;;;5035554;28;20565;-82
2022/10/22 03:24:35;;;;;;;5.30;4.90;;;19.50;76.30;;;;;;5030103;28;20466;-83
2022/10/22 03:27:04;;;;;;;4.83;4.43;;;19.50;76.10;;;;;;5033711;28;20458;-84
2022/10/22 03:29:33;;;;;;;4.93;4.53;;;19.50;76.30;;;;;;5027125;28;20443;-81
2022/10/22 03:32:01;;;;;;;4.90;4.50;;;19.40;76.90;;;;;;5032750;28;20853;-82
2022/10/22 03:34:29;;;;;;;5.00;4.50;;;19.40;76.20;;;;;;5029791;28;20526;-82
2022/10/22 03:36:57;;;;;;;5.00;4.60;;;19.40;76.00;;;;;;5035486;28;20459;-82
2022/10/22 03:39:25;;;;;;;6.00;4.50;;;19.40;76.20;;;;;;5029609;28;20458;-82
2022/10/22 03:41:52;;;;;;;4.80;4.40;;;19.40;76.20;;;;;;5031665;28;20471;-83
2022/10/22 03:44:20;;;;;;;4.30;4.00;;;19.40;76.30;;;;;;5026929;28;20455;-82
2022/10/22 03:46:49;;;;;;;4.60;4.20;;;19.40;76.20;;;;;;5033829;28;20455;-80
2022/10/22 03:49:17;;;;;;;4.70;4.30;;;19.40;76.30;;;;;;5035854;28;20938;-81
2022/10/22 03:51:45;;;;;;;9.43;4.20;;;19.40;76.90;;;;;;5026956;28;20476;-83
2022/10/22 03:54:15;;;;;;;4.43;4.03;;;19.40;76.30;;;;;;5027319;28;20443;-83
2022/10/22 03:56:42;;;;;;;4.77;4.37;;;19.40;76.40;;;;;;5027264;28;20467;-81
2022/10/22 03:59:12;;;;;;;4.60;4.20;;;19.40;76.20;;;;;;5033582;28;20459;-81
2022/10/22 04:01:39;;;;;;;4.17;3.87;;;19.40;76.30;;;;;;5033755;28;20467;-81
2022/10/22 04:04:09;;;;;;;4.30;4.00;;;19.40;76.20;;;;;;5018768;28;20455;-81
2022/10/22 04:06:37;;;;;;;4.70;4.20;;;19.40;76.20;;;;;;5026897;28;20456;-82
2022/10/22 04:09:04;;;;;;;4.07;3.77;;;19.40;76.30;;;;;;5032845;28;20465;-84
2022/10/22 04:11:32;;;;;;;3.60;3.33;;;19.40;76.20;;;;;;5029122;28;20479;-85
2022/10/22 04:14:00;;;;;;;4.07;3.70;;;19.40;76.20;;;;;;5031638;28;20451;-82
2022/10/22 04:16:31;;;;;;;5.20;4.70;;;19.40;76.40;;;;;;5025834;28;20452;-82
2022/10/22 04:18:59;;;;;;;4.10;3.80;;;19.40;76.30;;;;;;5023879;28;20456;-85
2022/10/22 04:21:28;;;;;;;4.87;4.33;;;19.30;76.40;;;;;;5034264;28;20459;-85
2022/10/22 04:23:57;;;;;;;5.10;4.20;;;19.30;76.40;;;;;;5033790;28;163408;-82
2022/10/22 04:26:25;;;;;;;4.00;3.70;;;19.30;76.40;;;;;;5037829;28;20447;-83
2022/10/22 04:28:53;;;;;;;4.60;4.20;;;19.30;76.40;;;;;;5034311;28;20987;-82
2022/10/22 04:31:22;;;;;;;4.10;3.70;;;19.30;76.50;;;;;;5027743;28;20471;-82
2022/10/22 04:33:53;;;;;;;3.90;3.60;;;19.30;76.50;;;;;;5034266;28;20479;-82
2022/10/22 04:36:21;;;;;;;3.83;3.50;;;19.30;76.50;;;;;;5022954;28;20461;-82
2022/10/22 04:38:52;;;;;;;3.60;3.40;;;19.30;76.60;;;;;;5030697;28;20456;-84
2022/10/22 04:41:21;;;;;;;4.20;3.90;;;19.30;76.60;;;;;;5025897;28;20451;-83
2022/10/22 04:43:49;;;;;;;4.40;4.00;;;19.30;76.50;;;;;;5026113;28;20478;-81
2022/10/22 04:46:18;;;;;;;3.90;3.60;;;19.30;76.60;;;;;;5027399;28;20455;-82
2022/10/22 04:48:46;;;;;;;3.80;3.50;;;19.30;76.60;;;;;;5034585;28;20458;-82
2022/10/22 04:51:14;;;;;;;3.90;3.60;;;19.30;76.60;;;;;;5026503;28;20468;-82
2022/10/22 04:53:42;;;;;;;4.17;3.80;;;19.20;76.60;;;;;;5033629;28;20482;-82
2022/10/22 04:56:15;;;;;;;4.07;3.70;;;19.30;76.60;;;;;;5032613;28;20458;-82
2022/10/22 04:58:43;;;;;;;3.73;3.43;;;19.20;76.70;;;;;;5034909;28;20456;-82
2022/10/22 05:01:12;;;;;;;3.30;3.10;;;19.30;76.80;;;;;;5023688;28;20459;-81
2022/10/22 05:03:39;;;;;;;4.30;3.90;;;19.20;76.80;;;;;;5033823;28;20533;-82
2022/10/22 05:06:08;;;;;;;4.13;3.83;;;19.20;76.90;;;;;;5033185;28;20462;-82
2022/10/22 05:08:36;;;;;;;4.07;3.77;;;19.20;77.00;;;;;;5033625;28;20452;-81
2022/10/22 05:11:12;;;;;;;3.57;3.20;;;19.20;77.00;;;;;;5025309;28;20544;-81
2022/10/22 05:13:40;;;;;;;3.90;3.60;;;19.10;77.00;;;;;;5026682;28;20475;-82
2022/10/22 05:16:08;;;;;;;3.67;3.37;;;19.10;77.10;;;;;;5024562;28;20452;-82
2022/10/22 05:18:36;;;;;;;4.30;3.90;;;19.10;77.10;;;;;;5027551;28;20468;-82
2022/10/22 05:21:04;;;;;;;3.23;3.03;;;19.10;77.20;;;;;;5032825;28;20442;-83
2022/10/22 05:23:32;;;;;;;4.00;3.53;;;19.10;77.20;;;;;;5033428;28;20479;-82
2022/10/22 05:26:02;;;;;;;5.20;3.43;;;19.10;77.40;;;;;;5034148;28;20440;-83
2022/10/22 05:28:31;;;;;;;3.50;3.30;;;19.10;77.20;;;;;;5028093;28;20475;-83
2022/10/22 05:30:59;;;;;;;3.63;3.33;;;19.10;77.40;;;;;;5032815;28;20452;-82
2022/10/22 05:33:28;;;;;;;4.20;3.90;;;19.00;77.20;;;;;;5029162;28;20480;-80
2022/10/22 05:35:56;;;;;;;3.50;3.23;;;19.00;77.30;;;;;;5025523;28;20463;-83
2022/10/22 05:38:24;;;;;;;4.10;3.60;;;19.00;77.30;;;;;;5033502;28;20462;-82
2022/10/22 05:40:59;;;;;;;3.30;3.10;;;19.00;77.30;;;;;;5027195;28;20451;-83
2022/10/22 05:43:27;;;;;;;4.03;3.63;;;19.00;77.30;;;;;;5027246;28;20459;-81
2022/10/22 05:46:01;;;;;;;3.70;3.40;;;19.00;77.50;;;;;;5033671;28;20458;-83
2022/10/22 05:48:28;;;;;;;3.60;3.30;;;18.90;77.30;;;;;;5029350;28;20452;-83
2022/10/22 05:50:56;;;;;;;4.60;3.50;;;19.00;77.50;;;;;;5035855;28;20946;-83
2022/10/22 05:53:24;;;;;;;3.70;3.40;;;19.00;77.50;;;;;;5029091;28;20559;-83
2022/10/22 05:55:52;;;;;;;3.60;3.30;;;18.90;77.30;;;;;;5034915;28;20449;-83
2022/10/22 05:58:20;;;;;;;3.30;3.10;;;18.90;77.40;;;;;;5033319;28;20464;-82
2022/10/22 06:00:49;;;;;;;3.40;3.20;;;18.90;77.40;;;;;;5028122;28;20443;-82
2022/10/22 06:03:18;;;;;;;3.80;3.27;;;18.90;77.40;;;;;;5034247;28;20478;-83
2022/10/22 06:05:46;;;;;;;3.53;3.33;;;18.90;77.40;;;;;;5033744;28;20459;-83
2022/10/22 06:08:14;;;;;;;3.57;3.37;;;18.90;77.50;;;;;;5022701;28;20527;-82
2022/10/22 06:10:45;;;;;;;3.30;3.10;;;18.90;77.50;;;;;;5032668;28;20517;-82
2022/10/22 06:13:13;;;;;;;3.67;3.37;;;18.90;77.60;;;;;;5030876;28;20476;-82
2022/10/22 06:15:41;;;;;;;3.40;3.20;;;18.90;77.60;;;;;;5034487;28;20463;-84
2022/10/22 06:18:11;;;;;;;3.60;3.40;;;18.90;77.50;;;;;;5026153;28;20447;-83
2022/10/22 06:20:42;;;;;;;3.40;3.10;;;18.90;77.50;;;;;;5033760;28;20466;-83
2022/10/22 06:23:09;;;;;;;3.07;2.87;;;18.90;77.60;;;;;;5032125;28;20480;-85
2022/10/22 06:25:37;;;;;;;3.40;3.20;;;18.90;77.70;;;;;;5015575;28;20436;-83
2022/10/22 06:28:05;;;;;;;3.23;3.00;;;18.90;78.20;;;;;;5021420;28;20603;-82
2022/10/22 06:30:33;;;;;;;3.43;3.23;;;18.90;78.30;;;;;;5026829;28;20439;-82
2022/10/22 06:33:01;;;;;;;3.13;2.83;;;18.90;77.60;;;;;;5034317;28;20479;-85
2022/10/22 06:35:29;;;;;;;3.60;3.30;;;18.90;77.50;;;;;;5033336;28;20459;-84
2022/10/22 06:37:58;;;;;;;3.30;3.00;;;18.90;77.50;;;;;;5025798;28;20455;-84
2022/10/22 06:40:26;;;;;;;3.00;2.80;;;19.00;77.50;;;;;;5034541;28;20447;-83
2022/10/22 06:42:54;;;;;;;2.83;2.63;;;19.00;77.50;;;;;;5033382;28;20468;-84
2022/10/22 06:45:22;;;;;;;4.13;3.10;;;19.00;77.40;;;;;;5033547;28;20456;-83
2022/10/22 06:47:50;;;;;;;3.27;3.07;;;19.00;77.20;;;;;;5032356;28;20451;-83
2022/10/22 06:50:18;;;;;;;3.70;3.40;;;19.00;77.20;;;;;;5035504;28;20443;-83
2022/10/22 06:52:46;;;;;;;3.00;2.80;;;19.00;77.20;;;;;;5033538;28;20498;-83
2022/10/22 06:55:16;;;;;;;4.87;3.20;;;19.00;77.00;;;;;;5026188;28;20447;-83
2022/10/22 06:57:44;;;;;;;5.70;3.03;;;19.10;77.10;;;;;;5034044;28;20462;-84
2022/10/22 07:00:13;;;;;;;3.17;2.93;;;19.10;76.90;;;;;;5034264;28;20450;-84
2022/10/22 07:02:41;;;;;;;3.13;2.83;;;19.20;76.80;;;;;;5033172;28;20498;-83
2022/10/22 07:05:10;;;;;;;2.97;2.77;;;19.20;76.70;;;;;;5033678;28;20525;-82
2022/10/22 07:07:38;;;;;;;3.20;3.00;;;19.20;76.70;;;;;;5025118;28;20458;-81
2022/10/22 07:10:06;;;;;;;2.90;2.73;;;19.20;76.60;;;;;;5029403;28;20451;-80
2022/10/22 07:12:36;;;;;;;3.17;2.87;;;19.30;76.60;;;;;;5032769;28;20486;-84
2022/10/22 07:15:05;;;;;;;3.20;3.00;;;19.30;76.50;;;;;;5024688;28;20456;-82
2022/10/22 07:17:33;;;;;;;2.97;2.77;;;19.30;76.40;;;;;;5025932;28;20510;-82
2022/10/22 07:20:01;;;;;;;3.20;2.93;;;19.30;76.30;;;;;;5032070;28;20483;-82
2022/10/22 07:22:29;;;;;;;3.27;3.00;;;19.30;76.30;;;;;;5033161;28;20466;-82
2022/10/22 07:24:57;;;;;;;3.67;3.40;;;19.30;76.20;;;;;;5032393;28;20457;-82
2022/10/22 07:27:25;;;;;;;2.90;2.80;;;19.40;76.30;;;;;;5026195;28;20981;-82
2022/10/22 07:29:55;;;;;;;3.93;3.13;;;19.40;76.30;;;;;;5033045;28;20462;-82
2022/10/22 07:32:22;;;;;;;3.30;3.10;;;19.40;76.20;;;;;;5031757;28;20471;-83
2022/10/22 07:34:51;;;;;;;2.80;2.60;;;19.40;76.00;;;;;;5024423;28;20459;-83
2022/10/22 07:37:20;;;;;;;2.57;2.47;;;19.40;75.90;;;;;;5029283;28;20460;-84
2022/10/22 07:39:48;;;;;;;3.00;2.80;;;19.50;76.00;;;;;;5028048;28;20538;-83
2022/10/22 07:42:16;;;;;;;3.10;2.90;;;19.50;75.90;;;;;;5036779;28;20437;-83
2022/10/22 07:44:45;;;;;;;3.70;3.40;;;19.50;75.80;;;;;;5036193;28;20451;-82
2022/10/22 07:47:14;;;;;;;3.30;3.10;;;19.50;75.80;;;;;;5035717;28;20522;-81
2022/10/22 07:49:43;;;;;;;3.03;2.83;;;19.60;75.90;;;;;;5028751;28;20444;-80
2022/10/22 07:52:11;;;;;;;3.47;3.17;;;19.60;75.80;;;;;;5036177;28;20471;-79
2022/10/22 07:54:39;;;;;;;2.97;2.70;;;19.70;75.60;;;;;;5025104;28;20471;-81
2022/10/22 07:57:07;;;;;;;2.50;2.40;;;19.70;75.60;;;;;;5035129;28;20447;-82
2022/10/22 07:59:35;;;;;;;2.87;2.67;;;19.70;75.50;;;;;;5035569;28;20458;-80
2022/10/22 08:02:02;;;;;;;3.00;2.80;;;19.80;75.30;;;;;;5035506;28;20468;-83
2022/10/22 08:04:32;;;;;;;3.53;2.53;;;19.80;75.20;;;;;;5034885;28;20455;-85
2022/10/22 08:07:00;;;;;;;3.17;2.93;;;19.90;75.20;;;;;;5034269;28;20459;-82
2022/10/22 08:09:28;;;;;;;2.80;2.60;;;19.90;75.10;;;;;;5026494;28;20455;-87
2022/10/22 08:11:56;;;;;;;3.00;2.80;;;20.00;75.00;;;;;;5035944;28;20471;-84
2022/10/22 08:14:24;;;;;;;2.57;2.37;;;20.00;74.80;;;;;;5026850;28;20472;-82
2022/10/22 08:16:52;;;;;;;2.87;2.67;;;20.00;74.80;;;;;;5034689;28;20455;-82
2022/10/22 08:19:20;;;;;;;3.73;2.90;;;20.00;74.80;;;;;;5028045;28;20456;-82
2022/10/22 08:21:49;;;;;;;2.90;2.70;;;20.10;75.00;;;;;;5035530;28;20452;-82
2022/10/22 08:24:18;;;;;;;3.03;2.83;;;20.20;75.20;;;;;;5023307;28;20467;-85
2022/10/22 08:26:46;;;;;;;3.13;2.93;;;20.30;75.30;;;;;;5034680;28;20987;-82
2022/10/22 08:29:14;;;;;;;2.87;2.67;;;20.40;75.20;;;;;;5029257;28;20624;-83
2022/10/22 08:31:42;;;;;;;4.10;2.60;;;20.60;75.00;;;;;;5031148;28;20460;-82
2022/10/22 08:34:10;;;;;;;3.00;2.80;;;20.70;74.80;;;;;;5035719;28;20482;-82
2022/10/22 08:36:38;;;;;;;3.60;2.90;;;20.90;74.90;;;;;;5036271;28;20452;-82
2022/10/22 08:39:08;;;;;;;3.20;3.00;;;21.10;74.30;;;;;;5035323;28;20467;-82
2022/10/22 08:41:40;;;;;;;2.83;2.63;;;21.20;73.70;;;;;;5031073;28;20456;-80
2022/10/22 08:44:48;;;;;;;2.73;2.53;;;21.40;73.50;;;;;;5031391;28;20509;-83
2022/10/22 08:47:24;;;;;;;2.57;2.40;;;21.60;73.50;;;;;;5035081;28;20451;-82
2022/10/22 08:49:53;;;;;;;2.80;2.63;;;21.70;73.10;;;;;;5036792;28;20458;-81
2022/10/22 08:52:21;;;;;;;2.80;2.60;;;21.80;73.10;;;;;;5036661;28;20486;-81
2022/10/22 08:54:52;;;;;;;2.90;2.80;;;21.90;72.90;;;;;;5036645;28;20480;-82
2022/10/22 08:57:42;;;;;;;2.97;2.80;;;22.20;73.40;;;;;;5036344;28;20440;-83
2022/10/22 09:00:15;;;;;;;2.27;2.17;;;22.30;73.20;;;;;;5023353;28;20431;-82
2022/10/22 09:02:51;;;;;;;3.00;2.40;;;22.60;73.10;;;;;;5037180;28;20463;-82
2022/10/22 09:05:29;;;;;;;2.90;2.70;;;22.80;73.00;;;;;;5031851;28;20440;-82
2022/10/22 09:07:57;;;;;;;3.10;2.80;;;23.00;72.90;;;;;;5027242;28;20406;-83
2022/10/22 09:10:29;;;;;;;5.23;2.50;;;23.20;72.80;;;;;;5038579;28;20436;-84
2022/10/22 09:12:56;;;;;;;3.10;2.80;;;23.40;72.50;;;;;;5038441;28;20452;-83
2022/10/22 09:15:25;;;;;;;3.00;2.70;;;23.70;72.30;;;;;;5040128;28;20475;-83
2022/10/22 09:17:59;;;;;;;3.13;2.53;;;23.90;72.40;;;;;;5040528;28;20429;-85
2022/10/22 09:20:29;;;;;;;2.60;2.37;;;24.10;72.10;;;;;;5034299;28;20490;-83
2022/10/22 09:23:02;;;;;;;2.60;2.40;;;24.30;71.70;;;;;;5035414;28;20570;-83
2022/10/22 09:25:33;;;;;;;2.97;2.40;;;24.40;71.40;;;;;;5037591;28;20507;-84
2022/10/22 09:28:01;;;;;;;3.00;2.67;;;24.70;71.20;;;;;;5037209;28;20454;-82
2022/10/22 09:30:30;;;;;;;3.27;2.40;;;24.80;70.90;;;;;;5037003;28;20445;-80
2022/10/22 09:33:00;;;;;;;3.10;2.43;;;25.00;70.90;;;;;;5035204;28;20555;-82
2022/10/22 09:35:28;;;;;;;2.70;2.50;;;25.10;70.40;;;;;;5034614;28;20442;-81
2022/10/22 09:37:57;;;;;;;2.60;2.40;;;25.20;70.00;;;;;;5036570;28;20455;-81
2022/10/22 09:40:25;;;;;;;2.50;2.30;;;25.30;69.80;;;;;;5036395;28;20458;-82
2022/10/22 09:42:54;;;;;;;2.77;2.57;;;25.30;69.70;;;;;;5035850;28;20981;-82
2022/10/22 09:48:25;;;;;;;23.20;4.13;;;25.20;66.60;;;;;;5022827;28;20463;-77
2022/10/22 09:50:59;;;;;;;16.70;3.57;;;25.80;66.30;;;;;;5033519;28;20436;-77
2022/10/22 09:53:48;;;;;;;14.53;4.10;;;26.40;65.40;;;;;;5033601;28;20449;-77
2022/10/22 09:56:24;;;;;;;6.30;3.80;;;26.90;62.90;;;;;;5033495;28;20490;-76
2022/10/22 09:58:55;;;;;;;7.93;3.47;;;27.10;61.10;;;;;;5027615;28;20517;-77
2022/10/22 10:01:25;;;;;;;9.77;3.60;;;27.30;59.80;;;;;;5032500;28;20444;-76
2022/10/22 10:04:09;;;;;;;12.33;3.37;;;27.40;58.80;;;;;;5032961;28;20488;-76
2022/10/22 10:06:39;;;;;;;6.70;3.17;;;27.40;58.20;;;;;;5032993;28;20426;-76
2022/10/22 10:09:13;;;;;;;8.00;3.67;;;27.50;57.70;;;;;;5033211;28;20482;-76
2022/10/22 10:11:59;;;;;;;5.90;3.20;;;27.60;57.00;;;;;;5032627;28;20476;-77
2022/10/22 10:14:49;;;;;;;3.60;3.17;;;27.70;56.80;;;;;;5032071;28;20453;-77
2022/10/22 10:17:36;;;;;;;9.33;3.30;;;27.60;56.20;;;;;;5018505;28;20436;-76
2022/10/22 10:20:33;;;;;;;5.23;3.00;;;27.50;56.10;;;;;;5032680;28;20432;-76
2022/10/22 10:23:06;;;;;;;12.40;3.60;;;27.50;56.60;;;;;;5022083;28;20488;-76
2022/10/22 10:25:46;;;;;;;4.67;2.97;;;27.50;56.50;;;;;;5032578;28;20523;-75
2022/10/22 10:28:22;;;;;;;5.83;3.40;;;27.50;56.20;;;;;;5032397;28;20431;-78
2022/10/22 10:30:55;;;;;;;11.50;3.20;;;27.50;55.90;;;;;;5033175;28;20422;-77
2022/10/22 10:33:28;;;;;;;7.33;3.37;;;27.50;55.80;;;;;;5032463;28;20445;-77
2022/10/22 10:36:01;;;;;;;3.43;3.00;;;27.50;55.80;;;;;;5021059;28;20458;-77
2022/10/22 10:38:38;;;;;;;12.17;3.77;;;27.50;55.50;;;;;;5027677;28;20462;-77
2022/10/22 10:41:23;;;;;;;15.37;3.83;;;27.70;55.40;;;;;;5034118;28;20410;-76
2022/10/22 10:44:00;;;;;;;5.13;3.50;;;27.80;55.40;;;;;;5032225;28;20433;-78
2022/10/22 10:46:48;;;;;;;9.53;3.33;;;28.00;55.00;;;;;;5001704;28;20439;-77
2022/10/22 10:49:18;;;;;;;12.63;3.83;;;28.20;54.50;;;;;;5015279;28;20427;-77
2022/10/22 10:51:50;;;;;;;10.07;3.50;;;28.30;54.10;;;;;;5029812;28;20437;-78
2022/10/22 10:54:28;;;;;;;8.87;3.20;;;28.30;53.50;;;;;;5024653;28;20469;-76
2022/10/22 10:56:57;;;;;;;12.77;3.23;;;28.20;53.80;;;;;;5033590;28;20497;-77
2022/10/22 10:59:39;;;;;;;13.40;3.33;;;28.40;53.20;;;;;;5033477;28;20426;-78
2022/10/22 11:02:44;;;;;;;11.67;3.30;;;28.40;53.90;;;;;;5034941;28;20454;-78
2022/10/22 11:05:21;;;;;;;6.97;3.60;;;28.90;53.30;;;;;;5013287;28;20441;-77
2022/10/22 11:07:50;;;;;;;11.87;3.90;;;29.20;51.40;;;;;;5024716;28;20497;-78
2022/10/22 11:10:27;;;;;;;23.53;5.00;;;29.90;50.50;;;;;;5027209;28;20457;-78
2022/10/22 11:12:57;;;;;;;16.93;3.67;;;30.10;49.00;;;;;;5032125;28;20465;-77
2022/10/22 11:18:22;;;;;;;9.23;3.10;;;29.90;49.40;;;;;;5034626;28;20455;-79
2022/10/22 11:20:57;;;;;;;14.13;3.30;;;29.70;49.60;;;;;;5040597;28;20433;-80
2022/10/22 11:23:30;;;;;;;15.10;3.37;;;29.70;49.90;;;;;;5037890;28;20453;-80
2022/10/22 11:25:58;;;;;;;10.20;3.10;;;29.70;49.90;;;;;;5039992;28;20451;-79
2022/10/22 11:28:28;;;;;;;9.60;3.00;;;29.60;50.00;;;;;;5036085;28;20422;-78
2022/10/22 11:31:03;;;;;;;9.83;2.63;;;29.60;49.80;;;;;;5035904;28;20449;-78
2022/10/22 11:33:42;;;;;;;6.60;3.33;;;29.40;49.60;;;;;;5036407;28;20521;-79
2022/10/22 11:36:10;;;;;;;7.90;3.30;;;29.20;50.00;;;;;;5038329;28;20524;-79
2022/10/22 11:38:45;;;;;;;8.87;3.20;;;29.00;50.60;;;;;;5042358;28;20420;-79
2022/10/22 11:41:16;;;;;;;8.50;3.20;;;28.90;51.00;;;;;;5036739;28;20437;-78
2022/10/22 11:43:59;;;;;;;11.57;3.30;;;29.00;51.50;;;;;;5038104;28;20570;-79
2022/10/22 11:46:43;;;;;;;11.67;3.10;;;29.00;51.40;;;;;;5038457;28;20447;-79
2022/10/22 11:49:26;;;;;;;8.60;3.07;;;28.90;51.30;;;;;;5037093;28;20459;-77
2022/10/22 11:52:06;;;;;;;6.60;2.87;;;28.90;51.40;;;;;;5036982;28;20463;-78
2022/10/22 11:54:43;;;;;;;7.07;3.30;;;28.70;51.50;;;;;;5039218;28;20550;-78
2022/10/22 11:57:19;;;;;;;8.30;3.33;;;28.80;52.50;;;;;;5042058;28;20441;-80
2022/10/22 11:59:49;;;;;;;13.93;3.60;;;28.30;51.60;;;;;;5031996;28;20421;-79
2022/10/22 12:02:24;;;;;;;7.17;3.03;;;27.40;54.00;;;;;;5042197;28;20501;-80
2022/10/22 12:04:55;;;;;;;8.53;3.30;;;26.80;55.90;;;;;;5042546;28;20424;-80
2022/10/22 12:07:32;;;;;;;9.80;3.30;;;26.30;57.20;;;;;;5043620;28;20448;-80
2022/10/22 12:10:00;;;;;;;4.70;3.10;;;26.10;58.30;;;;;;5043206;28;20443;-80
2022/10/22 12:12:34;;;;;;;6.40;3.40;;;25.80;58.90;;;;;;5036657;28;20488;-79
2022/10/22 12:15:02;;;;;;;7.47;3.27;;;25.70;59.60;;;;;;5038661;28;20439;-79
2022/10/22 12:17:31;;;;;;;5.60;3.50;;;25.60;60.00;;;;;;5041891;28;20441;-80
2022/10/22 12:20:02;;;;;;;7.67;3.17;;;25.60;60.70;;;;;;5040283;28;20451;-79
2022/10/22 12:22:31;;;;;;;7.27;3.67;;;25.50;61.20;;;;;;5031747;28;20478;-79
2022/10/22 12:25:00;;;;;;;6.00;2.90;;;25.40;61.60;;;;;;5037244;28;20418;-78
2022/10/22 12:27:34;;;;;;;7.10;3.10;;;25.30;62.10;;;;;;5025339;28;20445;-80
2022/10/22 12:30:03;;;;;;;8.80;3.40;;;25.20;62.60;;;;;;5038031;28;20435;-80
2022/10/22 12:32:35;;;;;;;6.50;3.60;;;25.10;62.30;;;;;;5037839;28;20453;-79
2022/10/22 12:35:08;;;;;;;9.67;3.70;;;24.90;62.20;;;;;;5039998;28;20435;-80
2022/10/22 12:37:36;;;;;;;9.60;3.53;;;24.80;62.60;;;;;;5039294;28;20422;-81
2022/10/22 12:40:17;;;;;;;7.80;3.70;;;24.80;63.10;;;;;;5034007;28;20482;-80
2022/10/22 12:42:53;;;;;;;7.97;3.33;;;24.80;63.80;;;;;;5037808;28;20486;-80
2022/10/22 12:45:21;;;;;;;7.00;4.20;;;25.00;63.80;;;;;;5039129;28;20413;-80
2022/10/22 12:47:51;;;;;;;13.40;3.73;;;25.00;63.40;;;;;;5036639;28;20439;-80
2022/10/22 12:50:21;;;;;;;13.07;5.00;;;24.90;63.60;;;;;;5037911;28;20946;-79
2022/10/22 12:52:49;;;;;;;10.60;4.80;;;24.90;64.00;;;;;;5038324;28;20434;-80
2022/10/22 12:55:17;;;;;;;11.00;4.60;;;24.80;64.40;;;;;;5039727;28;20428;-79
2022/10/22 12:57:47;;;;;;;8.00;4.23;;;24.90;65.00;;;;;;5040621;28;20456;-80
2022/10/22 13:00:23;;;;;;;7.90;4.50;;;24.90;65.60;;;;;;5024600;28;20430;-80
2022/10/22 13:02:51;;;;;;;9.60;4.43;;;25.00;66.30;;;;;;5038121;28;20442;-78
2022/10/22 13:05:26;;;;;;;9.70;4.43;;;25.20;66.60;;;;;;5025529;28;20447;-78
2022/10/22 13:07:54;;;;;;;11.50;4.70;;;25.30;66.50;;;;;;5035936;28;20421;-80
2022/10/22 13:10:27;;;;;;;7.40;4.37;;;25.30;66.40;;;;;;5035069;28;20430;-79